Marion, South Dakota
Current Conditions -  °F | °C
As of 10:56 PM on Sunday 21 Dec 2014 (Local Time) from KFSD Reporting Station
Overcast Overcast  
Wind Chill: 30°   Ceiling: 800
Heat Index: 39°   Visibility: 10mi
Dew Point: 37°   Wind: 18mph
Humidity: 93%   Direction: 170°S
Pressure: 29.54"   Gusts: 28mph
Location:  43.42°N, 97.26°W
Report Text: KFSD 220456Z 17016G24KT 10SM OVC008 04/03 A2954 RMK AO2 CIG 007V012 SLP015 T00390028
Loading
Personal Weather Stations






























Interactive Weather Map New forecast layout! Learn more

10-Day Weather Forecast

Advertisements
Track Severe Weather on mobile